createdAt,value
2019-06-26T00:00:27.951Z,97536.27
2019-06-26T00:02:59.590Z,97543.75
2019-06-26T00:05:31.160Z,97543.30
2019-06-26T00:08:02.704Z,97549.69
2019-06-26T00:10:33.979Z,97549.87
2019-06-26T00:13:05.618Z,97549.69
2019-06-26T00:15:37.264Z,97555.12
2019-06-26T00:18:08.978Z,97552.81
2019-06-26T00:20:40.865Z,97549.64
2019-06-26T00:23:12.406Z,97557.72
2019-06-26T00:25:43.769Z,97566.38
2019-06-26T00:28:15.202Z,97561.87
2019-06-26T00:30:46.802Z,97550.72
2019-06-26T00:33:18.231Z,97555.20
2019-06-26T00:35:49.712Z,97559.70
2019-06-26T00:38:21.177Z,97558.02
2019-06-26T00:40:53.135Z,97547.58
2019-06-26T00:43:24.528Z,97547.45
2019-06-26T00:45:55.931Z,97538.59
2019-06-26T00:48:27.410Z,97540.41
2019-06-26T00:50:58.883Z,97538.66
2019-06-26T00:53:30.226Z,97544.83
2019-06-26T00:56:02.030Z,97543.89
2019-06-26T00:58:33.508Z,97541.52
2019-06-26T01:01:04.948Z,97545.34
2019-06-26T01:03:36.407Z,97541.64
2019-06-26T01:06:10.333Z,97551.03
2019-06-26T01:08:41.871Z,97549.95
2019-06-26T01:11:14.278Z,97548.09
2019-06-26T01:13:57.644Z,97546.41
2019-06-26T01:16:18.862Z,97546.39
2019-06-26T01:18:50.271Z,97540.41
2019-06-26T01:21:21.771Z,97539.58
2019-06-26T01:23:53.057Z,97543.17
2019-06-26T01:26:24.680Z,97542.10
2019-06-26T01:28:56.214Z,97543.59
2019-06-26T01:31:28.067Z,97542.64
2019-06-26T01:33:59.662Z,97549.59
2019-06-26T01:36:31.096Z,97546.52
2019-06-26T01:39:02.445Z,97549.33
2019-06-26T01:41:35.735Z,97545.15
2019-06-26T01:44:14.589Z,97545.39
2019-06-26T01:46:41.069Z,97553.53
2019-06-26T01:49:12.781Z,97550.26
2019-06-26T01:51:44.210Z,97554.75
2019-06-26T01:54:15.707Z,97556.83
2019-06-26T01:56:46.976Z,97558.69
2019-06-26T01:59:18.318Z,97561.20
2019-06-26T02:01:49.755Z,97563.59
2019-06-26T02:04:21.243Z,97564.41
2019-06-26T02:06:52.547Z,97564.41
2019-06-26T02:09:23.980Z,97565.23
2019-06-26T02:11:55.745Z,97564.41
2019-06-26T02:14:31.369Z,97569.82
2019-06-26T02:17:00.818Z,97563.94
2019-06-26T02:19:32.387Z,97570.17
2019-06-26T02:22:03.894Z,97564.33
2019-06-26T02:24:35.415Z,97567.09
2019-06-26T02:27:06.895Z,97568.08
2019-06-26T02:29:38.990Z,97563.00
2019-06-26T02:32:10.318Z,97556.03
2019-06-26T02:34:41.661Z,97568.20
2019-06-26T02:37:13.156Z,97560.33
2019-06-26T02:39:44.601Z,97563.66
2019-06-26T02:42:16.116Z,97560.06
2019-06-26T02:44:53.656Z,97557.59
2019-06-26T02:47:21.110Z,97559.58
2019-06-26T02:49:53.072Z,97549.47
2019-06-26T02:52:24.556Z,97552.34
2019-06-26T02:54:56.177Z,97556.23
2019-06-26T02:57:27.574Z,97564.22
2019-06-26T02:59:58.972Z,97566.16
2019-06-26T03:02:30.459Z,97563.72
2019-06-26T03:05:02.204Z,97566.42
2019-06-26T03:07:34.042Z,97569.09
2019-06-26T03:10:08.233Z,97560.41
2019-06-26T03:12:44.666Z,97569.22
2019-06-26T03:15:17.298Z,97563.30
2019-06-26T03:17:55.524Z,97566.92
2019-06-26T03:20:26.204Z,97562.73
2019-06-26T03:22:58.404Z,97577.55
2019-06-26T03:25:29.837Z,97575.77
2019-06-26T03:28:01.294Z,97573.20
2019-06-26T03:30:32.843Z,97577.63
2019-06-26T03:33:04.250Z,97578.59
2019-06-26T03:35:36.562Z,97570.66
2019-06-26T03:38:08.051Z,97581.08
2019-06-26T03:40:39.435Z,97578.46
2019-06-26T03:43:10.840Z,97588.71
2019-06-26T03:45:42.234Z,97586.05
2019-06-26T03:48:13.652Z,97579.99
2019-06-26T03:50:45.340Z,97583.48
2019-06-26T03:53:16.737Z,97579.12
2019-06-26T03:55:48.631Z,97579.03
2019-06-26T03:58:20.067Z,97595.50
2019-06-26T04:00:54.644Z,97583.17
2019-06-26T04:03:24.752Z,97586.52
2019-06-26T04:05:56.232Z,97593.28
2019-06-26T04:08:27.633Z,97578.23
2019-06-26T04:10:59.059Z,97587.72
2019-06-26T04:13:30.458Z,97591.02
2019-06-26T04:16:01.985Z,97589.95
2019-06-26T04:18:33.380Z,97587.30
2019-06-26T04:21:04.870Z,97587.25
2019-06-26T04:23:36.654Z,97591.41
2019-06-26T04:26:08.128Z,97582.53
2019-06-26T04:28:39.567Z,97592.73
2019-06-26T04:31:11.091Z,97594.98
2019-06-26T04:33:42.430Z,97592.93
2019-06-26T04:36:13.939Z,97595.31
2019-06-26T04:38:45.373Z,97593.36
2019-06-26T04:41:16.693Z,97597.51
2019-06-26T04:43:48.588Z,97598.22
2019-06-26T04:46:20.341Z,97599.79
2019-06-26T04:48:51.697Z,97600.63
2019-06-26T04:51:23.254Z,97599.59
2019-06-26T04:53:55.871Z,97604.70
2019-06-26T04:56:27.449Z,97604.36
2019-06-26T04:58:58.818Z,97603.11
2019-06-26T05:01:30.368Z,97602.69
2019-06-26T05:04:01.802Z,97611.18
2019-06-26T05:06:33.335Z,97605.39
2019-06-26T05:09:06.345Z,97609.97
2019-06-26T05:11:38.178Z,97613.72
2019-06-26T05:14:09.558Z,97612.66
2019-06-26T05:16:41.022Z,97613.30
2019-06-26T05:19:13.416Z,97619.09
2019-06-26T05:21:44.951Z,97616.09
2019-06-26T05:24:16.433Z,97620.08
2019-06-26T05:26:47.821Z,97616.14
2019-06-26T05:29:19.289Z,97615.75
2019-06-26T05:31:50.607Z,97630.91
2019-06-26T05:34:21.999Z,97628.78
2019-06-26T05:36:53.467Z,97610.02
2019-06-26T05:39:24.986Z,97616.56
2019-06-26T05:41:56.467Z,97623.14
2019-06-26T05:44:27.790Z,97627.75
2019-06-26T05:46:59.556Z,97629.74
2019-06-26T05:49:30.965Z,97637.71
2019-06-26T05:52:02.366Z,97636.30
2019-06-26T05:54:34.030Z,97636.96
2019-06-26T05:57:05.503Z,97638.61
2019-06-26T05:59:36.833Z,97641.05
2019-06-26T06:02:08.712Z,97648.68
2019-06-26T06:04:40.293Z,97644.45
2019-06-26T06:07:11.738Z,97647.80
2019-06-26T06:09:43.205Z,97643.31
2019-06-26T06:12:14.601Z,97648.16
2019-06-26T06:14:45.910Z,97647.70
2019-06-26T06:17:17.202Z,97646.33
2019-06-26T06:19:48.918Z,97647.98
2019-06-26T06:22:21.285Z,97652.74
2019-06-26T06:24:52.684Z,97642.02
2019-06-26T06:27:23.968Z,97651.96
2019-06-26T06:29:55.214Z,97656.84
2019-06-26T06:32:26.638Z,97654.07
2019-06-26T06:34:57.959Z,97658.91
2019-06-26T06:37:29.350Z,97655.91
2019-06-26T06:40:00.932Z,97656.83
2019-06-26T06:42:32.409Z,97662.98
2019-06-26T06:45:03.930Z,97665.23
2019-06-26T06:47:35.317Z,97661.00
2019-06-26T06:50:07.217Z,97666.55
2019-06-26T06:52:39.096Z,97666.66
2019-06-26T06:55:11.403Z,97668.36
2019-06-26T06:57:42.784Z,97680.91
2019-06-26T07:00:14.855Z,97677.81
2019-06-26T07:02:46.284Z,97680.21
2019-06-26T07:05:17.750Z,97690.24
2019-06-26T07:07:49.159Z,97686.05
2019-06-26T07:10:20.911Z,97687.05
2019-06-26T07:12:52.384Z,97683.14
2019-06-26T07:15:24.292Z,97689.45
2019-06-26T07:17:55.898Z,97685.00
2019-06-26T07:20:27.154Z,97693.95
2019-06-26T07:22:58.579Z,97693.84
2019-06-26T07:25:30.208Z,97695.30
2019-06-26T07:28:02.114Z,97690.17
2019-06-26T07:30:34.919Z,97689.78
2019-06-26T07:33:06.788Z,97690.08
2019-06-26T07:35:38.239Z,97690.19
2019-06-26T07:38:09.707Z,97702.16
2019-06-26T07:40:41.100Z,97700.42
2019-06-26T07:43:16.275Z,97695.55
2019-06-26T07:45:45.771Z,97703.66
2019-06-26T07:48:17.282Z,97704.52
2019-06-26T07:50:48.649Z,97709.73
2019-06-26T07:53:20.067Z,97708.17
2019-06-26T07:55:51.511Z,97706.13
2019-06-26T07:58:22.888Z,97713.16
2019-06-26T08:00:54.636Z,97703.45
2019-06-26T08:03:25.942Z,97709.21
2019-06-26T08:05:57.330Z,97708.48
2019-06-26T08:08:29.036Z,97714.88
2019-06-26T08:11:00.399Z,97708.35
2019-06-26T08:13:31.710Z,97700.66
2019-06-26T08:16:03.139Z,97709.36
2019-06-26T08:18:34.526Z,97706.70
2019-06-26T08:21:12.450Z,97713.70
2019-06-26T08:23:38.912Z,97711.37
2019-06-26T08:26:10.213Z,97712.52
2019-06-26T08:28:41.697Z,97714.78
2019-06-26T08:31:13.223Z,97706.91
2019-06-26T08:33:45.492Z,97710.47
2019-06-26T08:36:17.199Z,97712.05
2019-06-26T08:38:48.505Z,97712.23
2019-06-26T08:41:19.730Z,97714.00
2019-06-26T08:43:50.986Z,97710.58
2019-06-26T08:46:23.330Z,97712.22
2019-06-26T08:48:54.774Z,97720.04
2019-06-26T08:51:26.314Z,97706.63
2019-06-26T08:53:57.777Z,97714.84
2019-06-26T08:56:29.125Z,97722.02
2019-06-26T08:59:00.414Z,97712.00
2019-06-26T09:01:31.759Z,97720.80
2019-06-26T09:04:03.182Z,97726.25
2019-06-26T09:06:34.551Z,97724.56
2019-06-26T09:09:08.330Z,97721.98
2019-06-26T09:11:39.886Z,97721.52
2019-06-26T09:14:11.180Z,97720.31
2019-06-26T09:17:10.921Z,97718.29
2019-06-26T09:19:44.032Z,97719.08
2019-06-26T09:22:15.644Z,97719.06
2019-06-26T09:24:47.464Z,97721.20
2019-06-26T09:27:19.573Z,97715.91
2019-06-26T09:29:51.144Z,97720.80
2019-06-26T09:32:22.545Z,97723.31
2019-06-26T09:34:53.939Z,97715.06
2019-06-26T09:37:25.605Z,97717.06
2019-06-26T09:39:56.980Z,97715.73
2019-06-26T09:42:28.365Z,97718.77
2019-06-26T09:44:59.822Z,97716.23
2019-06-26T09:47:32.285Z,97733.05
2019-06-26T09:50:03.729Z,97726.11
2019-06-26T09:52:35.147Z,97715.81
2019-06-26T09:55:07.275Z,97727.64
2019-06-26T09:57:39.948Z,97719.33
2019-06-26T10:00:13.701Z,97725.22
2019-06-26T10:02:45.237Z,97725.66
2019-06-26T10:05:18.013Z,97715.63
2019-06-26T10:07:49.342Z,97724.51
2019-06-26T10:10:21.422Z,97717.27
2019-06-26T10:12:53.008Z,97718.01
2019-06-26T10:15:24.772Z,97718.22
2019-06-26T10:17:56.093Z,97705.34
2019-06-26T10:20:27.649Z,97711.59
2019-06-26T10:22:58.968Z,97715.13
2019-06-26T10:25:30.625Z,97716.48
2019-06-26T10:28:02.584Z,97711.97
2019-06-26T10:30:34.081Z,97713.23
2019-06-26T10:33:05.637Z,97710.88
2019-06-26T10:35:37.013Z,97714.98
2019-06-26T10:38:08.613Z,97714.38
2019-06-26T10:40:40.014Z,97707.26
2019-06-26T10:43:11.533Z,97712.59
2019-06-26T10:45:42.922Z,97712.89
2019-06-26T10:48:14.378Z,97700.66
2019-06-26T10:50:51.889Z,97701.20
2019-06-26T10:53:18.855Z,97705.56
2019-06-26T10:55:50.264Z,97697.06
2019-06-26T10:58:21.678Z,97704.09
2019-06-26T11:00:54.902Z,97698.44
2019-06-26T11:03:26.231Z,97700.47
2019-06-26T11:05:57.730Z,97702.72
2019-06-26T11:08:30.318Z,97698.20
2019-06-26T11:11:01.784Z,97695.90
2019-06-26T11:13:33.366Z,97696.45
2019-06-26T11:16:05.080Z,97699.52
2019-06-26T11:18:36.613Z,97687.32
2019-06-26T11:21:08.534Z,97697.13
2019-06-26T11:23:39.946Z,97690.03
2019-06-26T11:26:11.320Z,97691.14
2019-06-26T11:28:43.027Z,97690.78
2019-06-26T11:31:14.511Z,97687.23
2019-06-26T11:33:45.971Z,97682.06
2019-06-26T11:36:17.382Z,97683.68
2019-06-26T11:38:48.793Z,97674.59
2019-06-26T11:41:21.297Z,97673.66
2019-06-26T11:43:52.737Z,97685.63
2019-06-26T11:46:24.551Z,97674.02
2019-06-26T11:48:55.849Z,97670.53
2019-06-26T11:51:28.731Z,97670.47
2019-06-26T11:54:00.131Z,97664.87
2019-06-26T11:56:32.088Z,97666.59
2019-06-26T11:59:03.588Z,97662.98
2019-06-26T12:01:35.006Z,97666.09
2019-06-26T12:04:07.367Z,97664.84
2019-06-26T12:06:38.766Z,97658.48
2019-06-26T12:09:11.215Z,97643.97
2019-06-26T12:11:42.448Z,97650.09
2019-06-26T12:14:14.147Z,97647.43
2019-06-26T12:16:45.629Z,97655.56
2019-06-26T12:19:19.915Z,97654.83
2019-06-26T12:21:50.430Z,97653.83
2019-06-26T12:24:21.760Z,97651.77
2019-06-26T12:26:53.154Z,97655.22
2019-06-26T12:29:24.531Z,97647.97
2019-06-26T12:31:56.200Z,97645.33
2019-06-26T12:34:27.511Z,97645.34
2019-06-26T12:36:58.859Z,97648.61
2019-06-26T12:39:30.417Z,97638.88
2019-06-26T12:42:01.830Z,97644.61
2019-06-26T12:44:33.307Z,97645.96
2019-06-26T12:47:04.816Z,97633.61
2019-06-26T12:49:36.274Z,97644.97
2019-06-26T12:52:07.954Z,97630.30
2019-06-26T12:54:40.230Z,97630.44
2019-06-26T12:57:11.637Z,97628.28
2019-06-26T12:59:56.719Z,97622.38
2019-06-26T13:02:16.144Z,97627.27
2019-06-26T13:04:47.448Z,97616.25
2019-06-26T13:07:18.832Z,97618.90
2019-06-26T13:09:50.244Z,97615.02
2019-06-26T13:12:21.740Z,97613.16
2019-06-26T13:14:53.053Z,97612.93
2019-06-26T13:17:24.407Z,97616.64
2019-06-26T13:19:55.703Z,97617.73
2019-06-26T13:22:26.977Z,97624.74
2019-06-26T13:24:58.283Z,97626.17
2019-06-26T13:27:29.634Z,97619.11
2019-06-26T13:30:01.198Z,97609.27
2019-06-26T13:32:32.585Z,97611.31
2019-06-26T13:35:04.349Z,97612.61
2019-06-26T13:37:35.824Z,97605.07
2019-06-26T13:40:08.166Z,97609.98
2019-06-26T13:42:39.491Z,97611.21
2019-06-26T13:45:11.615Z,97609.30
2019-06-26T13:47:42.874Z,97599.98
2019-06-26T13:50:15.273Z,97608.00
2019-06-26T13:52:46.717Z,97609.91
2019-06-26T13:55:18.871Z,97611.28
2019-06-26T13:57:50.221Z,97606.72
2019-06-26T14:00:23.541Z,97592.85
2019-06-26T14:02:55.029Z,97601.19
2019-06-26T14:05:29.376Z,97593.94
2019-06-26T14:07:59.480Z,97595.19
2019-06-26T14:10:30.910Z,97580.38
2019-06-26T14:13:02.237Z,97594.59
2019-06-26T14:15:34.001Z,97591.78
2019-06-26T14:18:05.801Z,97583.84
2019-06-26T14:20:37.185Z,97579.23
2019-06-26T14:23:08.606Z,97587.34
2019-06-26T14:25:40.011Z,97579.72
2019-06-26T14:28:11.350Z,97581.81
2019-06-26T14:30:44.398Z,97577.61
2019-06-26T14:33:15.676Z,97581.91
2019-06-26T14:35:47.205Z,97577.75
2019-06-26T14:38:18.574Z,97577.13
2019-06-26T14:40:49.890Z,97574.59
2019-06-26T14:43:21.166Z,97576.22
2019-06-26T14:45:52.634Z,97566.91
2019-06-26T14:48:24.526Z,97574.12
2019-06-26T14:50:55.820Z,97561.54
2019-06-26T14:53:27.109Z,97564.53
2019-06-26T14:55:58.492Z,97563.91
2019-06-26T14:58:29.703Z,97562.13
2019-06-26T15:01:01.197Z,97563.75
2019-06-26T15:03:32.626Z,97559.16
2019-06-26T15:06:15.928Z,97550.98
2019-06-26T15:08:37.890Z,97552.17
2019-06-26T15:11:09.905Z,97548.11
2019-06-26T15:13:41.245Z,97544.91
2019-06-26T15:16:12.607Z,97541.45
2019-06-26T15:18:44.044Z,97542.17
2019-06-26T15:21:15.338Z,97536.09
2019-06-26T15:23:46.653Z,97542.88
2019-06-26T15:26:18.217Z,97537.16
2019-06-26T15:28:49.583Z,97543.58
2019-06-26T15:31:20.991Z,97537.59
2019-06-26T15:33:52.402Z,97535.73
2019-06-26T15:36:23.670Z,97530.59
2019-06-26T15:38:58.263Z,97536.13
2019-06-26T15:41:28.564Z,97528.19
2019-06-26T15:43:59.927Z,97528.78
2019-06-26T15:46:31.433Z,97527.51
2019-06-26T15:49:02.766Z,97531.36
2019-06-26T15:51:34.185Z,97524.52
2019-06-26T15:54:06.069Z,97524.48
2019-06-26T15:56:37.437Z,97520.67
2019-06-26T15:59:08.855Z,97515.16
2019-06-26T16:01:40.298Z,97519.86
2019-06-26T16:04:11.773Z,97516.02
2019-06-26T16:06:43.088Z,97505.12
2019-06-26T16:09:14.504Z,97515.43
2019-06-26T16:11:45.824Z,97509.20
2019-06-26T16:14:17.107Z,97515.98
2019-06-26T16:16:50.210Z,97505.16
2019-06-26T16:19:22.751Z,97506.70
2019-06-26T16:21:54.184Z,97499.89
2019-06-26T16:24:25.525Z,97506.11
2019-06-26T16:26:56.847Z,97505.27
2019-06-26T16:29:28.300Z,97509.79
2019-06-26T16:31:59.680Z,97499.59
2019-06-26T16:34:31.012Z,97493.94
2019-06-26T16:37:02.683Z,97505.67
2019-06-26T16:39:34.581Z,97506.98
2019-06-26T16:42:06.362Z,97505.27
2019-06-26T16:44:37.715Z,97514.73
2019-06-26T16:47:09.112Z,97503.97
2019-06-26T16:49:40.529Z,97502.16
2019-06-26T16:52:11.893Z,97511.42
2019-06-26T16:54:43.262Z,97501.65
2019-06-26T16:57:14.728Z,97503.38
2019-06-26T16:59:45.999Z,97506.47
2019-06-26T17:02:17.297Z,97491.61
2019-06-26T17:04:48.663Z,97498.08
2019-06-26T17:07:20.065Z,97497.19
2019-06-26T17:09:51.780Z,97494.13
2019-06-26T17:12:23.365Z,97498.98
2019-06-26T17:14:54.871Z,97492.61
2019-06-26T17:17:26.314Z,97494.58
2019-06-26T17:19:58.733Z,97488.45
2019-06-26T17:22:30.347Z,97494.83
2019-06-26T17:25:01.990Z,97495.02
2019-06-26T17:27:33.724Z,97502.53
2019-06-26T17:30:06.467Z,97498.67
2019-06-26T17:32:38.024Z,97501.77
2019-06-26T17:35:09.728Z,97497.56
2019-06-26T17:37:41.215Z,97498.36
2019-06-26T17:40:12.986Z,97493.39
2019-06-26T17:42:45.070Z,97504.98
2019-06-26T17:45:16.820Z,97500.08
2019-06-26T17:47:48.500Z,97497.00
2019-06-26T17:50:20.077Z,97491.64
2019-06-26T17:52:51.827Z,97491.28
2019-06-26T17:55:23.570Z,97493.53
2019-06-26T17:57:55.490Z,97501.66
2019-06-26T18:00:47.656Z,97494.34
2019-06-26T18:03:19.103Z,97497.27
2019-06-26T18:05:50.954Z,97488.81
2019-06-26T18:08:22.401Z,97501.73
2019-06-26T18:10:53.965Z,97499.77
2019-06-26T18:13:25.551Z,97505.14
2019-06-26T18:15:56.879Z,97503.74
2019-06-26T18:18:28.216Z,97499.72
2019-06-26T18:20:59.558Z,97503.66
2019-06-26T18:23:37.896Z,97504.52
2019-06-26T18:26:12.860Z,97510.97
2019-06-26T18:28:37.633Z,97504.27
2019-06-26T18:31:09.071Z,97508.05
2019-06-26T18:33:44.043Z,97509.50
2019-06-26T18:36:13.619Z,97503.92
2019-06-26T18:38:45.036Z,97504.88
2019-06-26T18:41:18.526Z,97507.55
2019-06-26T18:43:49.395Z,97513.45
2019-06-26T18:46:20.733Z,97508.80
2019-06-26T18:48:51.974Z,97506.50
2019-06-26T18:51:23.483Z,97513.08
2019-06-26T18:53:55.357Z,97512.77
2019-06-26T18:56:26.668Z,97512.50
2019-06-26T18:58:57.959Z,97510.71
2019-06-26T19:01:29.716Z,97513.97
2019-06-26T19:04:01.033Z,97513.78
2019-06-26T19:06:32.279Z,97507.90
2019-06-26T19:09:05.328Z,97514.25
2019-06-26T19:11:39.272Z,97515.33
2019-06-26T19:14:10.647Z,97515.22
2019-06-26T19:16:42.432Z,97517.34
2019-06-26T19:19:13.764Z,97514.44
2019-06-26T19:21:45.086Z,97514.45
2019-06-26T19:24:16.484Z,97503.24
2019-06-26T19:26:47.973Z,97510.78
2019-06-26T19:29:19.267Z,97517.20
2019-06-26T19:31:50.786Z,97520.23
2019-06-26T19:34:22.247Z,97520.34
2019-06-26T19:36:53.619Z,97521.36
2019-06-26T19:39:24.938Z,97524.32
2019-06-26T19:41:56.418Z,97522.11
2019-06-26T19:44:27.740Z,97519.68
2019-06-26T19:46:59.131Z,97515.08
2019-06-26T19:49:30.765Z,97522.13
2019-06-26T19:52:02.126Z,97515.72
2019-06-26T19:54:33.437Z,97522.89
2019-06-26T19:57:04.935Z,97523.52
2019-06-26T19:59:36.306Z,97526.50
2019-06-26T20:02:08.311Z,97523.22
2019-06-26T20:04:39.982Z,97519.08
2019-06-26T20:07:11.435Z,97523.62
2019-06-26T20:09:43.064Z,97527.78
2019-06-26T20:12:14.810Z,97524.64
2019-06-26T20:14:46.178Z,97522.98
2019-06-26T20:17:18.502Z,97528.75
2019-06-26T20:19:49.799Z,97521.80
2019-06-26T20:22:21.260Z,97519.16
2019-06-26T20:24:52.695Z,97519.08
2019-06-26T20:27:24.035Z,97522.28
2019-06-26T20:29:55.731Z,97520.45
2019-06-26T20:32:27.161Z,97525.45
2019-06-26T20:34:58.529Z,97522.56
2019-06-26T20:37:29.929Z,97527.66
2019-06-26T20:40:01.560Z,97530.52
2019-06-26T20:42:33.221Z,97528.70
2019-06-26T20:45:05.017Z,97531.34
2019-06-26T20:47:36.314Z,97528.02
2019-06-26T20:50:09.713Z,97527.66
2019-06-26T20:52:41.085Z,97527.33
2019-06-26T20:55:12.499Z,97529.84
2019-06-26T20:57:43.765Z,97531.59
2019-06-26T21:00:15.267Z,97531.70
2019-06-26T21:02:46.641Z,97536.98
2019-06-26T21:05:18.056Z,97537.83
2019-06-26T21:07:49.534Z,97539.20
2019-06-26T21:10:21.208Z,97534.45
2019-06-26T21:12:52.495Z,97540.31
2019-06-26T21:15:23.758Z,97539.85
2019-06-26T21:17:55.123Z,97535.25
2019-06-26T21:20:26.449Z,97538.80
2019-06-26T21:22:58.083Z,97545.14
2019-06-26T21:25:29.841Z,97543.48
2019-06-26T21:28:01.397Z,97537.22
2019-06-26T21:30:32.860Z,97534.54
2019-06-26T21:33:04.385Z,97528.59
2019-06-26T21:35:35.964Z,97541.98
2019-06-26T21:38:07.314Z,97535.17
2019-06-26T21:40:38.702Z,97532.05
2019-06-26T21:43:09.930Z,97536.92
2019-06-26T21:45:41.395Z,97540.47
2019-06-26T21:48:12.850Z,97537.95
2019-06-26T21:50:44.202Z,97531.88
2019-06-26T21:53:15.518Z,97538.89
2019-06-26T21:56:05.025Z,97537.05
2019-06-26T21:58:54.041Z,97536.02
2019-06-26T22:01:43.741Z,97540.98
2019-06-26T22:04:32.491Z,97536.03
2019-06-26T22:07:07.086Z,97534.78
2019-06-26T22:09:40.455Z,97537.57
2019-06-26T22:12:12.623Z,97533.67
2019-06-26T22:14:45.353Z,97540.13
2019-06-26T22:17:16.886Z,97536.02
2019-06-26T22:19:48.431Z,97544.53
2019-06-26T22:22:19.990Z,97541.84
2019-06-26T22:24:51.976Z,97537.28
2019-06-26T22:27:23.297Z,97538.44
2019-06-26T22:29:54.701Z,97540.25
2019-06-26T22:32:26.321Z,97546.24
2019-06-26T22:34:57.961Z,97556.42
2019-06-26T22:37:30.239Z,97550.97
2019-06-26T22:40:01.612Z,97543.78
2019-06-26T22:42:33.686Z,97539.63
2019-06-26T22:45:05.509Z,97539.73
2019-06-26T22:47:36.996Z,97534.97
2019-06-26T22:50:09.555Z,97538.63
2019-06-26T22:52:41.335Z,97538.41
2019-06-26T22:55:13.705Z,97533.92
2019-06-26T22:57:45.091Z,97542.00
2019-06-26T23:00:17.142Z,97537.53
2019-06-26T23:02:48.534Z,97539.91
2019-06-26T23:05:19.889Z,97539.63
2019-06-26T23:07:51.575Z,97536.06
2019-06-26T23:10:22.951Z,97535.72
2019-06-26T23:12:54.342Z,97543.02
2019-06-26T23:15:25.828Z,97536.83
2019-06-26T23:17:57.509Z,97533.48
2019-06-26T23:20:28.939Z,97531.07
2019-06-26T23:23:00.415Z,97531.16
2019-06-26T23:25:32.132Z,97533.91
2019-06-26T23:28:03.533Z,97535.84
2019-06-26T23:30:34.793Z,97534.92
2019-06-26T23:33:06.398Z,97524.56
2019-06-26T23:35:37.631Z,97517.48
2019-06-26T23:38:09.040Z,97527.25
2019-06-26T23:40:40.525Z,97523.03
2019-06-26T23:43:11.957Z,97515.30
2019-06-26T23:45:43.675Z,97519.69
2019-06-26T23:48:14.917Z,97516.37
2019-06-26T23:50:47.493Z,97518.94
2019-06-26T23:53:18.734Z,97516.37
2019-06-26T23:55:50.228Z,97509.58
2019-06-26T23:58:21.619Z,97518.27
